sensor_id;sensor_type;location;lat;lon;timestamp;P1;durP1;ratioP1;P2;durP2;ratioP2
45358;SDS011;31096;49.292;8.710;2022-11-15T00:00:49;9.07;;;5.13;;
45358;SDS011;31096;49.292;8.710;2022-11-15T00:05:40;10.27;;;6.03;;
45358;SDS011;31096;49.292;8.710;2022-11-15T00:10:31;9.60;;;5.73;;
45358;SDS011;31096;49.292;8.710;2022-11-15T00:15:22;12.57;;;6.50;;
45358;SDS011;31096;49.292;8.710;2022-11-15T00:20:13;9.43;;;5.90;;
45358;SDS011;31096;49.292;8.710;2022-11-15T00:25:03;10.37;;;5.50;;
45358;SDS011;31096;49.292;8.710;2022-11-15T00:29:55;8.93;;;5.50;;
45358;SDS011;31096;49.292;8.710;2022-11-15T00:34:45;10.60;;;5.77;;
45358;SDS011;31096;49.292;8.710;2022-11-15T00:39:36;10.10;;;6.50;;
45358;SDS011;31096;49.292;8.710;2022-11-15T00:44:27;9.20;;;5.43;;
45358;SDS011;31096;49.292;8.710;2022-11-15T00:49:17;9.98;;;5.65;;
45358;SDS011;31096;49.292;8.710;2022-11-15T00:54:08;9.27;;;5.40;;
45358;SDS011;31096;49.292;8.710;2022-11-15T00:58:58;9.37;;;5.73;;
45358;SDS011;31096;49.292;8.710;2022-11-15T01:03:49;11.27;;;6.40;;
45358;SDS011;31096;49.292;8.710;2022-11-15T01:08:40;11.93;;;6.47;;
45358;SDS011;31096;49.292;8.710;2022-11-15T01:13:31;10.73;;;5.90;;
45358;SDS011;31096;49.292;8.710;2022-11-15T01:18:23;10.18;;;6.07;;
45358;SDS011;31096;49.292;8.710;2022-11-15T01:23:14;10.50;;;5.83;;
45358;SDS011;31096;49.292;8.710;2022-11-15T01:28:05;9.77;;;5.47;;
45358;SDS011;31096;49.292;8.710;2022-11-15T01:32:56;7.82;;;4.95;;
45358;SDS011;31096;49.292;8.710;2022-11-15T01:37:46;11.03;;;6.03;;
45358;SDS011;31096;49.292;8.710;2022-11-15T01:42:37;9.27;;;5.83;;
45358;SDS011;31096;49.292;8.710;2022-11-15T01:47:29;9.38;;;5.38;;
45358;SDS011;31096;49.292;8.710;2022-11-15T01:52:26;10.37;;;5.10;;
45358;SDS011;31096;49.292;8.710;2022-11-15T01:57:19;9.48;;;5.32;;
45358;SDS011;31096;49.292;8.710;2022-11-15T02:02:10;9.77;;;5.70;;
45358;SDS011;31096;49.292;8.710;2022-11-15T02:07:02;7.72;;;4.32;;
45358;SDS011;31096;49.292;8.710;2022-11-15T02:11:53;11.00;;;5.50;;
45358;SDS011;31096;49.292;8.710;2022-11-15T02:22:24;9.43;;;4.95;;
45358;SDS011;31096;49.292;8.710;2022-11-15T02:38:22;8.87;;;5.10;;
45358;SDS011;31096;49.292;8.710;2022-11-15T02:43:26;8.55;;;5.43;;
45358;SDS011;31096;49.292;8.710;2022-11-15T02:48:44;9.88;;;4.85;;
45358;SDS011;31096;49.292;8.710;2022-11-15T02:53:35;8.35;;;4.38;;
45358;SDS011;31096;49.292;8.710;2022-11-15T02:58:32;8.77;;;4.97;;
45358;SDS011;31096;49.292;8.710;2022-11-15T03:04:11;10.32;;;5.85;;
45358;SDS011;31096;49.292;8.710;2022-11-15T03:14:45;8.90;;;5.05;;
45358;SDS011;31096;49.292;8.710;2022-11-15T03:19:47;8.95;;;4.60;;
45358;SDS011;31096;49.292;8.710;2022-11-15T03:24:40;8.07;;;4.80;;
45358;SDS011;31096;49.292;8.710;2022-11-15T03:29:35;9.45;;;4.88;;
45358;SDS011;31096;49.292;8.710;2022-11-15T03:34:31;7.97;;;4.45;;
45358;SDS011;31096;49.292;8.710;2022-11-15T03:39:30;10.77;;;4.20;;
45358;SDS011;31096;49.292;8.710;2022-11-15T03:44:40;8.50;;;4.63;;
45358;SDS011;31096;49.292;8.710;2022-11-15T03:49:52;7.60;;;4.53;;
45358;SDS011;31096;49.292;8.710;2022-11-15T03:54:51;7.45;;;4.57;;
45358;SDS011;31096;49.292;8.710;2022-11-15T03:59:44;7.73;;;4.13;;
45358;SDS011;31096;49.292;8.710;2022-11-15T04:04:41;9.02;;;4.45;;
45358;SDS011;31096;49.292;8.710;2022-11-15T04:09:32;7.30;;;4.40;;
45358;SDS011;31096;49.292;8.710;2022-11-15T04:14:22;6.17;;;3.50;;
45358;SDS011;31096;49.292;8.710;2022-11-15T04:19:13;7.63;;;4.22;;
45358;SDS011;31096;49.292;8.710;2022-11-15T04:24:22;9.03;;;4.20;;
45358;SDS011;31096;49.292;8.710;2022-11-15T04:29:12;6.63;;;4.30;;
45358;SDS011;31096;49.292;8.710;2022-11-15T04:34:21;7.40;;;4.10;;
45358;SDS011;31096;49.292;8.710;2022-11-15T04:39:12;11.87;;;4.57;;
45358;SDS011;31096;49.292;8.710;2022-11-15T04:44:03;6.90;;;3.97;;
45358;SDS011;31096;49.292;8.710;2022-11-15T04:48:54;8.50;;;4.00;;
45358;SDS011;31096;49.292;8.710;2022-11-15T04:53:44;5.70;;;3.30;;
45358;SDS011;31096;49.292;8.710;2022-11-15T04:58:35;6.73;;;3.87;;
45358;SDS011;31096;49.292;8.710;2022-11-15T05:03:26;6.43;;;3.90;;
45358;SDS011;31096;49.292;8.710;2022-11-15T05:08:35;7.53;;;4.10;;
45358;SDS011;31096;49.292;8.710;2022-11-15T05:13:25;11.17;;;4.50;;
45358;SDS011;31096;49.292;8.710;2022-11-15T05:18:16;8.70;;;4.27;;
45358;SDS011;31096;49.292;8.710;2022-11-15T05:23:07;7.50;;;4.70;;
45358;SDS011;31096;49.292;8.710;2022-11-15T05:27:57;11.07;;;4.90;;
45358;SDS011;31096;49.292;8.710;2022-11-15T05:32:48;6.83;;;3.80;;
45358;SDS011;31096;49.292;8.710;2022-11-15T05:37:39;8.52;;;4.90;;
45358;SDS011;31096;49.292;8.710;2022-11-15T05:42:29;8.70;;;4.43;;
45358;SDS011;31096;49.292;8.710;2022-11-15T05:47:21;7.95;;;4.68;;
45358;SDS011;31096;49.292;8.710;2022-11-15T05:52:15;7.53;;;4.40;;
45358;SDS011;31096;49.292;8.710;2022-11-15T05:57:08;6.93;;;4.07;;
45358;SDS011;31096;49.292;8.710;2022-11-15T06:01:59;6.37;;;4.17;;
45358;SDS011;31096;49.292;8.710;2022-11-15T06:06:50;7.90;;;4.40;;
45358;SDS011;31096;49.292;8.710;2022-11-15T06:11:40;7.17;;;4.63;;
45358;SDS011;31096;49.292;8.710;2022-11-15T06:16:31;9.20;;;4.50;;
45358;SDS011;31096;49.292;8.710;2022-11-15T06:21:22;9.43;;;4.68;;
45358;SDS011;31096;49.292;8.710;2022-11-15T06:26:12;9.27;;;5.23;;
45358;SDS011;31096;49.292;8.710;2022-11-15T06:31:07;7.30;;;4.03;;
45358;SDS011;31096;49.292;8.710;2022-11-15T06:36:04;10.23;;;5.30;;
45358;SDS011;31096;49.292;8.710;2022-11-15T06:41:02;8.63;;;4.78;;
45358;SDS011;31096;49.292;8.710;2022-11-15T06:45:58;8.40;;;4.57;;
45358;SDS011;31096;49.292;8.710;2022-11-15T06:50:50;8.32;;;4.18;;
45358;SDS011;31096;49.292;8.710;2022-11-15T06:55:45;6.50;;;3.70;;
45358;SDS011;31096;49.292;8.710;2022-11-15T07:00:36;6.60;;;4.15;;
45358;SDS011;31096;49.292;8.710;2022-11-15T07:05:27;6.70;;;4.03;;
45358;SDS011;31096;49.292;8.710;2022-11-15T07:10:18;9.50;;;4.85;;
45358;SDS011;31096;49.292;8.710;2022-11-15T07:15:09;8.17;;;4.53;;
45358;SDS011;31096;49.292;8.710;2022-11-15T07:19:59;9.25;;;4.25;;
45358;SDS011;31096;49.292;8.710;2022-11-15T07:24:50;7.37;;;4.00;;
45358;SDS011;31096;49.292;8.710;2022-11-15T07:29:41;7.97;;;3.97;;
45358;SDS011;31096;49.292;8.710;2022-11-15T07:34:31;6.68;;;3.50;;
45358;SDS011;31096;49.292;8.710;2022-11-15T07:39:23;6.10;;;4.00;;
45358;SDS011;31096;49.292;8.710;2022-11-15T07:44:14;8.00;;;4.00;;
45358;SDS011;31096;49.292;8.710;2022-11-15T07:49:04;7.05;;;3.70;;
45358;SDS011;31096;49.292;8.710;2022-11-15T07:53:55;9.90;;;4.17;;
45358;SDS011;31096;49.292;8.710;2022-11-15T07:58:46;7.73;;;4.57;;
45358;SDS011;31096;49.292;8.710;2022-11-15T08:03:37;7.45;;;4.18;;
45358;SDS011;31096;49.292;8.710;2022-11-15T08:08:28;7.70;;;3.70;;
45358;SDS011;31096;49.292;8.710;2022-11-15T08:13:18;6.15;;;3.33;;
45358;SDS011;31096;49.292;8.710;2022-11-15T08:18:11;7.80;;;3.37;;
45358;SDS011;31096;49.292;8.710;2022-11-15T08:23:04;6.85;;;3.65;;
45358;SDS011;31096;49.292;8.710;2022-11-15T08:27:57;7.03;;;3.95;;
45358;SDS011;31096;49.292;8.710;2022-11-15T08:32:51;7.97;;;3.50;;
45358;SDS011;31096;49.292;8.710;2022-11-15T08:37:42;6.45;;;4.00;;
45358;SDS011;31096;49.292;8.710;2022-11-15T08:42:33;9.00;;;4.10;;
45358;SDS011;31096;49.292;8.710;2022-11-15T08:47:23;7.13;;;3.47;;
45358;SDS011;31096;49.292;8.710;2022-11-15T08:52:14;7.93;;;3.77;;
45358;SDS011;31096;49.292;8.710;2022-11-15T08:57:05;6.33;;;4.40;;
45358;SDS011;31096;49.292;8.710;2022-11-15T09:01:56;10.05;;;4.20;;
45358;SDS011;31096;49.292;8.710;2022-11-15T09:06:47;5.73;;;3.13;;
45358;SDS011;31096;49.292;8.710;2022-11-15T09:11:38;7.20;;;3.58;;
45358;SDS011;31096;49.292;8.710;2022-11-15T09:16:30;9.60;;;4.23;;
45358;SDS011;31096;49.292;8.710;2022-11-15T09:21:21;8.38;;;3.60;;
45358;SDS011;31096;49.292;8.710;2022-11-15T09:26:12;18.53;;;4.30;;
45358;SDS011;31096;49.292;8.710;2022-11-15T09:31:04;6.32;;;3.95;;
45358;SDS011;31096;49.292;8.710;2022-11-15T09:36:00;6.77;;;3.77;;
45358;SDS011;31096;49.292;8.710;2022-11-15T09:40:53;7.90;;;3.83;;
45358;SDS011;31096;49.292;8.710;2022-11-15T09:51:45;8.10;;;3.70;;
45358;SDS011;31096;49.292;8.710;2022-11-15T09:56:41;7.57;;;3.97;;
45358;SDS011;31096;49.292;8.710;2022-11-15T10:01:56;6.75;;;4.13;;
45358;SDS011;31096;49.292;8.710;2022-11-15T10:06:52;6.68;;;3.67;;
45358;SDS011;31096;49.292;8.710;2022-11-15T10:11:52;7.00;;;3.37;;
45358;SDS011;31096;49.292;8.710;2022-11-15T10:27:13;7.95;;;3.88;;
45358;SDS011;31096;49.292;8.710;2022-11-15T10:32:10;6.10;;;3.53;;
45358;SDS011;31096;49.292;8.710;2022-11-15T10:37:02;6.33;;;3.40;;
45358;SDS011;31096;49.292;8.710;2022-11-15T10:41:52;8.15;;;3.33;;
45358;SDS011;31096;49.292;8.710;2022-11-15T10:52:18;7.57;;;3.60;;
45358;SDS011;31096;49.292;8.710;2022-11-15T10:57:16;7.33;;;4.10;;
45358;SDS011;31096;49.292;8.710;2022-11-15T11:07:33;6.40;;;3.10;;
45358;SDS011;31096;49.292;8.710;2022-11-15T11:12:29;7.68;;;3.78;;
45358;SDS011;31096;49.292;8.710;2022-11-15T11:17:23;6.50;;;3.60;;
45358;SDS011;31096;49.292;8.710;2022-11-15T11:33:46;6.57;;;3.20;;
45358;SDS011;31096;49.292;8.710;2022-11-15T11:44:55;5.80;;;2.95;;
45358;SDS011;31096;49.292;8.710;2022-11-15T12:00:31;5.30;;;2.70;;
45358;SDS011;31096;49.292;8.710;2022-11-15T12:05:27;7.90;;;3.45;;
45358;SDS011;31096;49.292;8.710;2022-11-15T12:10:29;5.90;;;2.73;;
45358;SDS011;31096;49.292;8.710;2022-11-15T12:15:25;4.97;;;2.83;;
45358;SDS011;31096;49.292;8.710;2022-11-15T12:20:22;5.32;;;2.80;;
45358;SDS011;31096;49.292;8.710;2022-11-15T12:25:25;16.07;;;4.57;;
45358;SDS011;31096;49.292;8.710;2022-11-15T12:30:41;6.22;;;3.35;;
45358;SDS011;31096;49.292;8.710;2022-11-15T12:35:44;4.88;;;2.78;;
45358;SDS011;31096;49.292;8.710;2022-11-15T12:41:15;6.23;;;3.50;;
45358;SDS011;31096;49.292;8.710;2022-11-15T12:46:11;5.37;;;2.97;;
45358;SDS011;31096;49.292;8.710;2022-11-15T12:52:03;6.00;;;3.42;;
45358;SDS011;31096;49.292;8.710;2022-11-15T12:56:36;5.85;;;3.38;;
45358;SDS011;31096;49.292;8.710;2022-11-15T13:06:34;5.47;;;3.25;;
45358;SDS011;31096;49.292;8.710;2022-11-15T13:11:43;8.37;;;3.70;;
45358;SDS011;31096;49.292;8.710;2022-11-15T13:16:36;6.93;;;3.22;;
45358;SDS011;31096;49.292;8.710;2022-11-15T13:21:27;6.38;;;3.42;;
45358;SDS011;31096;49.292;8.710;2022-11-15T13:26:37;6.13;;;3.10;;
45358;SDS011;31096;49.292;8.710;2022-11-15T13:31:30;8.32;;;3.75;;
45358;SDS011;31096;49.292;8.710;2022-11-15T13:36:31;6.30;;;3.30;;
45358;SDS011;31096;49.292;8.710;2022-11-15T13:41:25;7.43;;;3.10;;
45358;SDS011;31096;49.292;8.710;2022-11-15T13:46:20;7.95;;;3.80;;
45358;SDS011;31096;49.292;8.710;2022-11-15T13:56:20;6.30;;;3.37;;
45358;SDS011;31096;49.292;8.710;2022-11-15T14:01:15;6.10;;;3.60;;
45358;SDS011;31096;49.292;8.710;2022-11-15T14:16:22;7.50;;;3.90;;
45358;SDS011;31096;49.292;8.710;2022-11-15T14:21:30;6.47;;;3.80;;
45358;SDS011;31096;49.292;8.710;2022-11-15T14:26:29;7.50;;;3.47;;
45358;SDS011;31096;49.292;8.710;2022-11-15T14:31:24;6.65;;;4.15;;
45358;SDS011;31096;49.292;8.710;2022-11-15T14:36:16;8.37;;;4.17;;
45358;SDS011;31096;49.292;8.710;2022-11-15T14:41:11;6.60;;;3.70;;
45358;SDS011;31096;49.292;8.710;2022-11-15T14:46:12;7.55;;;3.90;;
45358;SDS011;31096;49.292;8.710;2022-11-15T14:51:03;7.60;;;4.03;;
45358;SDS011;31096;49.292;8.710;2022-11-15T14:56:06;8.27;;;4.85;;
45358;SDS011;31096;49.292;8.710;2022-11-15T15:00:57;6.27;;;4.00;;
45358;SDS011;31096;49.292;8.710;2022-11-15T15:05:48;7.67;;;3.83;;
45358;SDS011;31096;49.292;8.710;2022-11-15T15:10:40;6.87;;;3.50;;
45358;SDS011;31096;49.292;8.710;2022-11-15T15:15:34;6.72;;;3.45;;
45358;SDS011;31096;49.292;8.710;2022-11-15T15:20:27;6.63;;;3.60;;
45358;SDS011;31096;49.292;8.710;2022-11-15T15:25:20;8.43;;;3.33;;
45358;SDS011;31096;49.292;8.710;2022-11-15T15:30:22;6.88;;;3.42;;
45358;SDS011;31096;49.292;8.710;2022-11-15T15:35:14;5.77;;;3.30;;
45358;SDS011;31096;49.292;8.710;2022-11-15T15:40:24;5.70;;;3.13;;
45358;SDS011;31096;49.292;8.710;2022-11-15T15:45:18;6.07;;;3.25;;
45358;SDS011;31096;49.292;8.710;2022-11-15T15:50:28;7.63;;;3.90;;
45358;SDS011;31096;49.292;8.710;2022-11-15T15:55:22;7.17;;;3.33;;
45358;SDS011;31096;49.292;8.710;2022-11-15T16:00:13;7.05;;;3.75;;
45358;SDS011;31096;49.292;8.710;2022-11-15T16:05:05;10.82;;;4.00;;
45358;SDS011;31096;49.292;8.710;2022-11-15T16:09:56;7.10;;;3.80;;
45358;SDS011;31096;49.292;8.710;2022-11-15T16:14:50;10.18;;;3.40;;
45358;SDS011;31096;49.292;8.710;2022-11-15T16:19:40;7.03;;;3.93;;
45358;SDS011;31096;49.292;8.710;2022-11-15T16:24:31;6.88;;;4.00;;
45358;SDS011;31096;49.292;8.710;2022-11-15T16:29:22;7.43;;;4.40;;
45358;SDS011;31096;49.292;8.710;2022-11-15T16:34:13;9.25;;;4.05;;
45358;SDS011;31096;49.292;8.710;2022-11-15T16:39:04;8.03;;;4.00;;
45358;SDS011;31096;49.292;8.710;2022-11-15T16:44:00;7.07;;;4.13;;
45358;SDS011;31096;49.292;8.710;2022-11-15T16:48:51;9.10;;;4.77;;
45358;SDS011;31096;49.292;8.710;2022-11-15T16:53:43;8.43;;;4.55;;
45358;SDS011;31096;49.292;8.710;2022-11-15T16:58:34;8.13;;;4.37;;
45358;SDS011;31096;49.292;8.710;2022-11-15T17:03:27;9.73;;;5.05;;
45358;SDS011;31096;49.292;8.710;2022-11-15T17:08:18;7.93;;;5.07;;
45358;SDS011;31096;49.292;8.710;2022-11-15T17:13:10;8.63;;;4.18;;
45358;SDS011;31096;49.292;8.710;2022-11-15T17:18:02;6.68;;;4.10;;
45358;SDS011;31096;49.292;8.710;2022-11-15T17:22:53;10.40;;;5.97;;
45358;SDS011;31096;49.292;8.710;2022-11-15T17:27:45;8.70;;;4.50;;
45358;SDS011;31096;49.292;8.710;2022-11-15T17:32:36;8.03;;;5.13;;
45358;SDS011;31096;49.292;8.710;2022-11-15T17:37:27;12.45;;;4.68;;
45358;SDS011;31096;49.292;8.710;2022-11-15T17:42:17;8.47;;;4.73;;
45358;SDS011;31096;49.292;8.710;2022-11-15T17:47:08;8.32;;;4.88;;
45358;SDS011;31096;49.292;8.710;2022-11-15T17:51:59;11.23;;;5.40;;
45358;SDS011;31096;49.292;8.710;2022-11-15T17:56:49;9.10;;;5.63;;
45358;SDS011;31096;49.292;8.710;2022-11-15T18:01:40;10.73;;;5.25;;
45358;SDS011;31096;49.292;8.710;2022-11-15T18:06:31;10.30;;;6.23;;
45358;SDS011;31096;49.292;8.710;2022-11-15T18:11:34;10.40;;;5.13;;
45358;SDS011;31096;49.292;8.710;2022-11-15T18:16:30;9.57;;;5.40;;
45358;SDS011;31096;49.292;8.710;2022-11-15T18:21:25;7.38;;;4.03;;
45358;SDS011;31096;49.292;8.710;2022-11-15T18:26:20;8.68;;;4.95;;
45358;SDS011;31096;49.292;8.710;2022-11-15T18:36:11;9.10;;;5.00;;
45358;SDS011;31096;49.292;8.710;2022-11-15T18:46:11;9.67;;;5.13;;
45358;SDS011;31096;49.292;8.710;2022-11-15T18:51:07;8.40;;;4.97;;
45358;SDS011;31096;49.292;8.710;2022-11-15T18:56:04;7.57;;;4.80;;
45358;SDS011;31096;49.292;8.710;2022-11-15T19:01:04;8.70;;;4.80;;
45358;SDS011;31096;49.292;8.710;2022-11-15T19:05:59;10.68;;;5.78;;
45358;SDS011;31096;49.292;8.710;2022-11-15T19:10:55;8.27;;;4.70;;
45358;SDS011;31096;49.292;8.710;2022-11-15T19:15:46;7.87;;;4.90;;
45358;SDS011;31096;49.292;8.710;2022-11-15T19:20:36;9.67;;;5.37;;
45358;SDS011;31096;49.292;8.710;2022-11-15T19:25:27;21.35;;;12.95;;
45358;SDS011;31096;49.292;8.710;2022-11-15T19:30:18;8.63;;;6.13;;
45358;SDS011;31096;49.292;8.710;2022-11-15T19:35:09;8.97;;;4.87;;
45358;SDS011;31096;49.292;8.710;2022-11-15T19:40:00;10.05;;;5.13;;
45358;SDS011;31096;49.292;8.710;2022-11-15T19:44:50;8.13;;;5.20;;
45358;SDS011;31096;49.292;8.710;2022-11-15T19:49:41;7.83;;;4.27;;
45358;SDS011;31096;49.292;8.710;2022-11-15T19:54:32;9.25;;;4.50;;
45358;SDS011;31096;49.292;8.710;2022-11-15T19:59:23;7.57;;;4.50;;
45358;SDS011;31096;49.292;8.710;2022-11-15T20:04:14;6.78;;;4.43;;
45358;SDS011;31096;49.292;8.710;2022-11-15T20:09:05;7.00;;;3.75;;
45358;SDS011;31096;49.292;8.710;2022-11-15T20:13:57;8.93;;;4.40;;
45358;SDS011;31096;49.292;8.710;2022-11-15T20:18:51;7.90;;;4.45;;
45358;SDS011;31096;49.292;8.710;2022-11-15T20:23:42;9.65;;;5.32;;
45358;SDS011;31096;49.292;8.710;2022-11-15T20:28:33;10.43;;;5.10;;
45358;SDS011;31096;49.292;8.710;2022-11-15T20:33:26;8.73;;;4.80;;
45358;SDS011;31096;49.292;8.710;2022-11-15T20:38:17;9.20;;;5.63;;
45358;SDS011;31096;49.292;8.710;2022-11-15T20:43:10;10.07;;;5.67;;
45358;SDS011;31096;49.292;8.710;2022-11-15T20:48:02;9.48;;;6.40;;
45358;SDS011;31096;49.292;8.710;2022-11-15T20:52:54;9.57;;;6.13;;
45358;SDS011;31096;49.292;8.710;2022-11-15T20:57:46;8.87;;;5.40;;
45358;SDS011;31096;49.292;8.710;2022-11-15T21:02:37;8.73;;;5.22;;
45358;SDS011;31096;49.292;8.710;2022-11-15T21:07:28;7.10;;;4.37;;
45358;SDS011;31096;49.292;8.710;2022-11-15T21:12:19;9.40;;;5.63;;
45358;SDS011;31096;49.292;8.710;2022-11-15T21:17:09;9.03;;;5.47;;
45358;SDS011;31096;49.292;8.710;2022-11-15T21:22:00;8.63;;;5.60;;
45358;SDS011;31096;49.292;8.710;2022-11-15T21:26:52;12.35;;;6.25;;
45358;SDS011;31096;49.292;8.710;2022-11-15T21:31:43;8.10;;;4.80;;
45358;SDS011;31096;49.292;8.710;2022-11-15T21:36:38;8.73;;;4.73;;
45358;SDS011;31096;49.292;8.710;2022-11-15T21:41:29;8.38;;;5.47;;
45358;SDS011;31096;49.292;8.710;2022-11-15T21:46:20;9.67;;;5.70;;
45358;SDS011;31096;49.292;8.710;2022-11-15T21:51:14;9.30;;;5.15;;
45358;SDS011;31096;49.292;8.710;2022-11-15T21:56:05;10.27;;;5.70;;
45358;SDS011;31096;49.292;8.710;2022-11-15T22:00:58;9.93;;;5.43;;
45358;SDS011;31096;49.292;8.710;2022-11-15T22:06:08;9.57;;;5.57;;
45358;SDS011;31096;49.292;8.710;2022-11-15T22:10:59;9.75;;;5.80;;
45358;SDS011;31096;49.292;8.710;2022-11-15T22:15:51;9.60;;;6.53;;
45358;SDS011;31096;49.292;8.710;2022-11-15T22:20:51;9.23;;;5.97;;
45358;SDS011;31096;49.292;8.710;2022-11-15T22:25:49;10.10;;;6.03;;
45358;SDS011;31096;49.292;8.710;2022-11-15T22:30:40;9.88;;;5.05;;
45358;SDS011;31096;49.292;8.710;2022-11-15T22:35:37;7.97;;;5.23;;
45358;SDS011;31096;49.292;8.710;2022-11-15T22:40:28;8.00;;;5.25;;
45358;SDS011;31096;49.292;8.710;2022-11-15T22:45:19;9.07;;;5.65;;
45358;SDS011;31096;49.292;8.710;2022-11-15T22:50:10;11.27;;;5.83;;
45358;SDS011;31096;49.292;8.710;2022-11-15T22:55:00;8.77;;;5.77;;
45358;SDS011;31096;49.292;8.710;2022-11-15T22:59:52;7.15;;;4.72;;
45358;SDS011;31096;49.292;8.710;2022-11-15T23:04:43;8.32;;;4.95;;
45358;SDS011;31096;49.292;8.710;2022-11-15T23:09:34;8.10;;;5.47;;
45358;SDS011;31096;49.292;8.710;2022-11-15T23:14:25;7.88;;;4.97;;
45358;SDS011;31096;49.292;8.710;2022-11-15T23:19:16;10.53;;;5.00;;
45358;SDS011;31096;49.292;8.710;2022-11-15T23:24:08;7.80;;;5.25;;
45358;SDS011;31096;49.292;8.710;2022-11-15T23:29:00;8.67;;;5.80;;
45358;SDS011;31096;49.292;8.710;2022-11-15T23:33:51;7.30;;;4.65;;
45358;SDS011;31096;49.292;8.710;2022-11-15T23:38:48;8.33;;;4.67;;
45358;SDS011;31096;49.292;8.710;2022-11-15T23:43:38;9.68;;;5.47;;
45358;SDS011;31096;49.292;8.710;2022-11-15T23:48:29;9.43;;;5.37;;
45358;SDS011;31096;49.292;8.710;2022-11-15T23:53:20;10.10;;;5.43;;
45358;SDS011;31096;49.292;8.710;2022-11-15T23:58:11;9.17;;;5.73;;
